Date,TemperatureHighF,TemperatureAvgF,TemperatureLowF,DewpointHighF,DewpointAvgF,DewpointLowF,HumidityHigh,HumidityAvg,HumidityLow,PressureMaxIn,PressureMinIn,WindSpeedMaxMPH,WindSpeedAvgMPH,GustSpeedMaxMPH,PrecipitationSumIn
2013-1-1,36,24,16,21,9,3,63,54,47,30.15,29.97,8,2,13,0.00
2013-1-2,43,24,10,32,9,0,59,47,31,30.21,30.09,6,1,8,0.00
2013-1-3,40,25,10,32,9,-2,55,41,30,30.21,30.00,7,3,13,0.00
2013-1-4,47,30,19,16,7,-2,48,39,27,30.09,29.97,5,2,9,0.00
2013-1-5,48,25,14,23,7,1,66,50,33,30.18,30.00,5,1,8,0.00
2013-1-6,41,30,14,16,10,1,64,44,33,30.00,29.80,6,2,13,1.07
2013-1-7,47,32,20,21,14,5,65,49,37,29.88,29.59,4,0,5,0.00
2013-1-8,50,39,26,23,11,-11,50,36,8,29.94,29.62,10,2,17,0.00
2013-1-9,59,42,24,28,18,9,64,40,17,29.91,29.62,5,1,9,0.00
2013-1-10,56,33,7,29,18,-5,68,55,32,29.97,29.47,14,2,14,1.07
2013-1-11,21,15,9,32,10,0,69,61,53,30.03,29.62,10,2,10,0.00
2013-1-12,72,11,-1,50,26,-11,57,52,39,30.06,26.81,5,1,7,0.25
2013-1-13,27,11,4,32,25,-2,55,48,43,30.12,30.03,6,2,11,0.00
2013-1-14,25,15,8,32,14,-2,51,47,40,30.09,29.91,7,3,13,0.00
2013-1-15,34,25,19,16,10,1,64,53,47,30.03,29.88,7,4,15,0.00
2013-1-16,48,34,27,23,15,10,52,46,37,30.18,29.94,6,3,12,0.00
2013-1-17,48,34,29,21,14,10,52,42,37,30.21,29.94,7,3,11,0.00
2013-1-18,58,41,29,25,16,9,59,38,15,29.97,29.83,6,2,10,0.00
2013-1-19,49,34,21,27,18,10,78,55,40,30.18,29.91,5,1,8,0.00
2013-1-20,34,24,17,19,11,5,81,59,51,30.36,30.00,5,2,12,0.00
2013-1-21,39,27,14,32,12,1,70,51,41,30.18,26.81,5,1,8,0.00
2013-1-22,51,28,10,32,21,5,79,53,29,30.03,26.05,5,0,7,0.00
2013-1-23,30,24,21,14,10,9,63,58,51,30.09,25.34,3,2,7,0.00
2013-1-24,57,38,20,30,18,10,70,46,31,30.03,26.61,8,1,14,0.00
2013-1-25,54,34,22,32,20,12,78,58,37,30.00,29.83,3,0,6,0.00
2013-1-26,61,48,30,32,26,18,72,43,29,29.85,29.59,4,1,8,0.00
2013-1-27,37,32,26,34,28,18,88,84,67,29.83,29.62,3,0,6,0.00
2013-1-28,37,30,0,27,21,9,89,74,31,31.63,26.05,4,0,5,0.08
2013-1-29,30,23,13,32,13,-4,63,50,43,31.60,7.56,5,2,8,0.00
2013-1-30,35,28,13,32,22,14,84,67,46,32.87,7.56,6,2,8,0.00
2013-1-31,30,18,5,32,19,0,76,62,48,30.09,29.85,6,1,9,0.00
2013-2-1,50,39,30,30,23,18,70,54,39,30.03,25.40,7,2,11,0.08
2013-2-2,53,35,21,28,18,12,77,51,36,32.78,24.57,7,2,8,0.00
2013-2-3,54,38,0,28,18,-9,54,44,7,29.88,7.56,10,2,10,0.00
2013-2-4,56,42,29,25,19,15,57,42,23,29.80,29.65,9,2,12,0.00
2013-2-5,56,41,30,30,22,16,63,47,36,29.83,29.59,4,1,7,0.00
2013-2-6,57,38,26,28,10,-11,72,40,6,29.91,29.62,9,1,17,0.00
2013-2-7,51,32,19,25,17,9,79,56,32,29.94,29.77,4,0,7,0.02
2013-2-8,46,31,21,24,21,19,91,69,34,30.05,29.94,1,0,6,0.00
2013-2-9,46,30,18,28,22,16,93,72,39,30.03,7.56,3,0,13,0.00
2013-2-10,31,26,15,28,20,13,92,77,51,30.30,29.94,5,1,16,0.00
2013-2-11,34,22,7,18,12,4,92,67,46,30.28,30.13,4,1,14,0.01
2013-2-12,44,30,21,20,14,9,66,51,36,30.24,30.01,3,1,14,0.01
2013-2-13,52,36,30,33,22,14,89,60,33,30.23,29.95,7,1,18,0.03
2013-2-14,35,29,26,26,20,13,91,71,42,30.45,30.24,4,1,15,0.00
2013-2-15,45,32,24,29,24,21,92,73,45,30.51,30.26,3,1,10,0.05
2013-2-16,54,39,28,27,23,20,73,54,35,30.27,29.79,3,1,14,0.00
2013-2-17,46,37,30,30,24,17,75,59,32,30.05,29.70,7,2,20,0.00
2013-2-18,40,30,21,27,21,16,91,70,47,30.22,30.05,1,0,7,0.02
2013-2-19,32,23,15,21,16,12,90,77,55,30.16,29.92,1,0,5,0.00
2013-2-20,34,25,16,20,17,14,93,73,53,30.07,29.96,2,0,9,0.00
2013-2-21,41,28,22,26,21,18,91,76,47,30.12,30.00,1,0,6,0.04
2013-2-22,45,32,24,20,17,12,78,57,26,30.06,29.74,3,1,12,0.00
2013-2-23,40,32,25,32,23,15,93,70,39,30.09,29.67,5,0,15,0.01
2013-2-24,32,28,22,24,20,16,81,72,64,30.26,30.09,2,0,9,0.00
2013-2-25,48,36,22,22,17,14,80,49,27,30.11,29.87,3,1,14,0.00
2013-2-26,43,34,30,22,16,14,59,49,31,30.12,29.98,3,1,11,0.00
2013-2-27,49,34,19,20,16,12,84,53,25,30.36,30.24,2,0,10,0.00
2013-2-28,51,38,26,22,17,15,71,44,25,30.36,30.21,4,1,15,0.00
2013-3-1,62,43,26,30,24,17,75,49,29,30.35,30.19,5,1,16,0.00
2013-3-2,64,48,36,31,28,25,69,49,26,30.25,29.85,4,1,16,0.00
2013-3-3,58,37,27,33,28,14,93,70,38,29.94,29.50,8,1,22,0.00
2013-3-4,33,24,14,16,12,10,82,61,40,30.53,29.94,6,3,21,0.00
2013-3-5,34,22,10,22,15,6,88,74,53,30.52,30.24,2,0,7,0.00
2013-3-6,38,27,15,26,20,13,94,78,59,30.24,29.86,2,0,7,0.07
2013-3-7,56,40,25,29,26,12,90,62,18,30.09,29.91,2,0,13,0.11
2013-3-8,49,37,27,28,27,24,88,67,44,30.08,29.89,2,0,8,0.00
2013-3-9,50,35,22,26,20,15,93,60,28,30.35,29.99,6,1,18,0.00
2013-3-10,60,40,18,25,18,14,87,49,18,30.34,30.03,5,1,13,0.00
2013-3-11,48,42,35,26,23,17,61,47,29,30.08,30.03,3,1,10,0.00
2013-3-12,51,39,22,24,21,16,90,51,29,30.40,30.11,1,0,7,0.00
2013-3-13,70,49,28,29,25,22,80,45,19,30.18,30.05,6,2,17,0.00
2013-3-14,46,43,38,29,28,27,64,56,49,30.14,30.12,0,0,1,0.00
2013-3-15,68,51,36,31,27,18,74,45,16,30.04,29.83,6,2,21,0.00
2013-3-16,53,39,27,29,26,22,85,63,39,30.06,29.72,3,1,11,0.00
2013-3-17,44,34,23,29,16,5,87,52,21,30.03,29.53,7,2,21,0.00
2013-3-18,44,30,17,19,11,1,78,49,17,30.10,29.92,6,1,19,0.00
2013-3-19,40,31,25,24,19,16,87,63,38,30.40,30.10,2,0,9,0.00
2013-3-20,131,36,18,23,18,14,85,54,21,30.33,29.60,3,0,7,0.00
2013-3-21,49,40,30,32,18,5,80,44,19,29.95,29.58,5,1,16,0.00
2013-3-22,36,26,17,27,16,7,87,65,34,30.30,29.94,2,0,10,0.02
2013-3-23,37,25,14,14,8,1,83,53,23,30.44,30.31,3,1,11,0.01
2013-3-24,37,23,12,12,9,4,86,60,25,30.50,30.41,3,0,11,0.00
2013-3-25,51,30,10,15,9,5,80,48,16,30.47,30.14,2,0,6,0.00
2013-3-26,57,39,23,22,15,10,64,41,21,30.15,29.98,3,0,9,0.00
2013-3-27,64,44,22,24,18,13,70,40,16,30.10,29.95,3,0,8,0.00
2013-3-28,66,47,26,28,24,20,76,45,21,30.12,29.96,2,0,7,0.00
2013-3-29,65,49,35,40,30,22,84,52,27,30.12,30.00,4,0,16,0.00
2013-3-30,62,50,38,39,28,20,86,48,21,30.16,30.05,5,1,17,0.00
2013-3-31,61,46,30,28,23,20,72,44,25,30.16,30.00,5,1,17,0.00
2013-4-1,61,44,25,27,23,20,81,47,23,30.21,30.08,4,1,12,0.00
2013-4-2,71,49,26,27,22,18,75,41,14,30.15,29.87,2,0,7,0.00
2013-4-3,70,52,37,32,28,23,68,41,20,30.08,29.89,4,1,14,0.00
2013-4-4,59,48,36,32,29,25,72,51,34,30.09,29.78,3,1,10,0.00
2013-4-5,63,52,42,46,35,30,80,53,32,29.77,29.65,4,1,11,0.05
2013-4-6,67,50,34,40,32,25,83,54,23,29.84,29.69,5,1,16,0.00
2013-4-7,66,49,35,43,37,30,92,68,31,29.78,29.48,4,1,12,0.49
2013-4-8,35,25,21,33,21,17,93,86,77,30.49,29.69,3,1,13,0.00
2013-4-9,31,24,19,18,16,11,89,70,47,30.64,30.48,2,0,6,0.02
2013-4-10,20,18,17,16,15,14,90,87,83,30.50,30.42,0,0,0,0.00
2013-4-11,58,47,34,35,29,22,75,52,30,29.93,29.83,6,2,19,0.00
2013-4-12,53,46,36,36,24,17,87,44,24,30.07,29.72,3,1,12,0.00
2013-4-13,48,40,37,31,27,24,66,60,49,29.72,29.38,1,0,6,0.00
2013-6-14,75,69,66,56,53,51,59,56,52,30.11,30.11,1,1,3,0.09